createdAt,value
2018-08-10T00:00:11.888Z,5.83
2018-08-10T00:03:13.416Z,5.70
2018-08-10T00:05:47.888Z,9.45
2018-08-10T00:08:22.571Z,15.63
2018-08-10T00:10:57.340Z,4.75
2018-08-10T00:13:31.888Z,4.40
2018-08-10T00:16:06.618Z,7.50
2018-08-10T00:18:41.309Z,5.95
2018-08-10T00:21:16.211Z,8.83
2018-08-10T00:23:51.014Z,4.15
2018-08-10T00:26:25.482Z,8.03
2018-08-10T00:29:00.174Z,5.87
2018-08-10T00:31:34.820Z,43.45
2018-08-10T00:34:09.430Z,25.95
2018-08-10T00:36:44.126Z,27.17
2018-08-10T00:39:18.751Z,12.70
2018-08-10T00:41:53.633Z,15.68
2018-08-10T00:44:28.140Z,9.40
2018-08-10T00:47:02.665Z,6.33
2018-08-10T00:49:37.448Z,10.03
2018-08-10T00:52:12.090Z,5.33
2018-08-10T00:54:46.696Z,17.62
2018-08-10T00:57:21.261Z,12.78
2018-08-10T00:59:56.104Z,7.22
2018-08-10T01:02:31.267Z,6.53
2018-08-10T01:05:06.916Z,9.03
2018-08-10T01:07:41.590Z,6.53
2018-08-10T01:10:17.448Z,7.28
2018-08-10T01:12:52.045Z,4.80
2018-08-10T01:15:26.903Z,5.12
2018-08-10T01:18:01.766Z,7.62
2018-08-10T01:20:36.518Z,9.73
2018-08-10T01:23:11.424Z,5.83
2018-08-10T01:25:46.214Z,10.55
2018-08-10T01:28:21.004Z,9.68
2018-08-10T01:30:55.914Z,16.30
2018-08-10T01:33:30.864Z,19.82
2018-08-10T01:36:05.808Z,21.42
2018-08-10T01:38:40.401Z,14.55
2018-08-10T01:41:15.063Z,9.45
2018-08-10T01:43:49.781Z,9.80
2018-08-10T01:46:24.462Z,12.00
2018-08-10T01:48:59.181Z,9.45
2018-08-10T01:51:33.895Z,7.78
2018-08-10T01:54:08.772Z,15.78
2018-08-10T01:56:43.586Z,5.28
2018-08-10T01:59:18.364Z,5.10
2018-08-10T02:01:53.091Z,10.40
2018-08-10T02:04:27.872Z,7.75
2018-08-10T02:07:02.463Z,6.15
2018-08-10T02:09:36.804Z,7.90
2018-08-10T02:12:11.433Z,10.10
2018-08-10T02:14:46.286Z,6.25
2018-08-10T02:17:20.987Z,8.25
2018-08-10T02:19:55.549Z,5.47
2018-08-10T02:22:30.241Z,8.28
2018-08-10T02:25:06.130Z,9.13
2018-08-10T02:27:41.806Z,9.25
2018-08-10T02:30:17.788Z,9.70
2018-08-10T02:32:52.831Z,8.13
2018-08-10T02:35:27.501Z,16.62
2018-08-10T02:38:02.078Z,41.18
2018-08-10T02:40:36.728Z,15.43
2018-08-10T02:43:11.447Z,18.10
2018-08-10T02:45:46.187Z,10.10
2018-08-10T02:48:20.854Z,6.80
2018-08-10T02:50:55.661Z,7.50
2018-08-10T02:53:30.196Z,15.43
2018-08-10T02:56:04.755Z,14.95
2018-08-10T02:58:39.284Z,10.72
2018-08-10T03:01:14.000Z,9.13
2018-08-10T03:03:48.554Z,13.25
2018-08-10T03:06:23.381Z,7.28
2018-08-10T03:08:57.961Z,12.98
2018-08-10T03:11:32.713Z,6.97
2018-08-10T03:14:07.466Z,7.17
2018-08-10T03:16:42.093Z,7.37
2018-08-10T03:19:16.724Z,8.28
2018-08-10T03:21:51.541Z,11.22
2018-08-10T03:24:26.156Z,8.25
2018-08-10T03:27:00.909Z,6.75
2018-08-10T03:29:35.760Z,6.22
2018-08-10T03:32:10.506Z,12.90
2018-08-10T03:34:45.347Z,10.15
2018-08-10T03:37:20.030Z,10.23
2018-08-10T03:39:54.705Z,16.35
2018-08-10T03:42:29.614Z,34.50
2018-08-10T03:45:04.895Z,27.22
2018-08-10T03:47:40.006Z,18.70
2018-08-10T03:50:14.842Z,15.48
2018-08-10T03:52:49.514Z,6.92
2018-08-10T03:55:24.236Z,7.05
2018-08-10T03:57:58.591Z,8.13
2018-08-10T04:00:33.192Z,8.78
2018-08-10T04:03:07.909Z,8.58
2018-08-10T04:05:42.653Z,6.58
2018-08-10T04:08:17.346Z,9.80
2018-08-10T04:10:51.884Z,9.93
2018-08-10T04:13:26.457Z,7.90
2018-08-10T04:16:01.189Z,6.65
2018-08-10T04:18:35.897Z,11.78
2018-08-10T04:21:10.607Z,10.75
2018-08-10T04:23:45.139Z,12.35
2018-08-10T04:26:19.688Z,9.15
2018-08-10T04:28:54.290Z,11.20
2018-08-10T04:31:28.895Z,10.93
2018-08-10T04:34:03.807Z,9.10
2018-08-10T04:36:38.629Z,10.85
2018-08-10T04:39:14.312Z,8.73
2018-08-10T04:41:48.862Z,11.83
2018-08-10T04:44:23.498Z,14.70
2018-08-10T04:46:58.181Z,25.95
2018-08-10T04:49:32.828Z,32.38
2018-08-10T04:52:07.436Z,27.62
2018-08-10T04:54:42.058Z,12.03
2018-08-10T04:57:16.904Z,9.30
2018-08-10T04:59:51.386Z,12.23
2018-08-10T05:02:25.988Z,6.50
2018-08-10T05:05:00.685Z,6.50
2018-08-10T05:07:35.313Z,7.87
2018-08-10T05:10:10.436Z,7.78
2018-08-10T05:12:45.029Z,7.22
2018-08-10T05:15:19.754Z,8.75
2018-08-10T05:17:54.486Z,13.95
2018-08-10T05:20:29.039Z,8.73
2018-08-10T05:23:03.769Z,9.73
2018-08-10T05:25:38.491Z,9.43
2018-08-10T05:28:13.280Z,10.98
2018-08-10T05:30:47.970Z,9.15
2018-08-10T05:33:22.599Z,8.45
2018-08-10T05:35:57.138Z,10.18
2018-08-10T05:38:31.868Z,6.87
2018-08-10T05:41:06.543Z,8.30
2018-08-10T05:43:41.511Z,9.03
2018-08-10T05:46:16.156Z,4.67
2018-08-10T05:48:50.911Z,2.47
2018-08-10T05:51:25.400Z,13.65
2018-08-10T05:54:00.117Z,19.55
2018-08-10T05:56:34.753Z,29.52
2018-08-10T05:59:09.289Z,24.10
2018-08-10T06:01:43.918Z,34.67
2018-08-10T06:04:18.473Z,24.32
2018-08-10T06:06:53.246Z,14.70
2018-08-10T06:09:27.824Z,3.77
2018-08-10T06:12:02.472Z,5.10
2018-08-10T06:14:37.298Z,4.87
2018-08-10T06:17:12.132Z,8.50
2018-08-10T06:19:46.717Z,6.85
2018-08-10T06:22:21.319Z,5.47
2018-08-10T06:24:55.999Z,2.72
2018-08-10T06:27:30.790Z,7.20
2018-08-10T06:30:08.034Z,2.92
2018-08-10T06:32:42.655Z,5.20
2018-08-10T06:35:17.138Z,10.00
2018-08-10T06:37:51.820Z,5.62
2018-08-10T06:40:26.518Z,4.47
2018-08-10T06:43:01.074Z,6.58
2018-08-10T06:45:35.711Z,7.65
2018-08-10T06:48:10.427Z,5.17
2018-08-10T06:50:45.022Z,4.55
2018-08-10T06:53:19.689Z,4.75
2018-08-10T06:55:54.353Z,4.72
2018-08-10T06:58:29.170Z,9.18
2018-08-10T07:01:03.848Z,9.10
2018-08-10T07:03:38.481Z,5.17
2018-08-10T07:06:13.384Z,6.33
2018-08-10T07:08:48.059Z,9.33
2018-08-10T07:11:22.705Z,15.30
2018-08-10T07:13:57.293Z,5.03
2018-08-10T07:16:32.053Z,5.08
2018-08-10T07:19:06.391Z,5.40
2018-08-10T07:21:40.830Z,4.87
2018-08-10T07:24:15.473Z,5.58
2018-08-10T07:26:49.906Z,3.27
2018-08-10T07:29:24.568Z,9.83
2018-08-10T07:31:59.167Z,6.42
2018-08-10T07:34:33.728Z,12.50
2018-08-10T07:37:08.450Z,27.80
2018-08-10T07:39:43.223Z,19.62
2018-08-10T07:42:17.869Z,32.90
2018-08-10T07:44:52.591Z,22.90
2018-08-10T07:47:27.315Z,56.70
2018-08-10T07:50:02.082Z,68.40
2018-08-10T07:52:36.628Z,25.97
2018-08-10T07:55:11.301Z,3.90
2018-08-10T07:57:45.837Z,2.05
2018-08-10T08:00:20.412Z,2.83
2018-08-10T08:02:55.258Z,5.20
2018-08-10T08:05:29.975Z,7.37
2018-08-10T08:08:04.913Z,1.42
2018-08-10T08:10:39.630Z,2.00
2018-08-10T08:13:14.139Z,2.60
2018-08-10T08:15:48.761Z,19.52
2018-08-10T08:18:23.457Z,9.08
2018-08-10T08:21:06.276Z,3.27
2018-08-10T08:23:40.899Z,3.90
2018-08-10T08:26:15.685Z,1.65
2018-08-10T08:28:50.406Z,7.87
2018-08-10T08:31:25.091Z,1.90
2018-08-10T08:34:06.148Z,3.17
2018-08-10T08:36:40.753Z,2.65
2018-08-10T08:39:27.481Z,4.42
2018-08-10T08:42:01.915Z,3.12
2018-08-10T08:44:47.315Z,2.30
2018-08-10T08:47:21.763Z,1.57
2018-08-10T08:49:56.274Z,4.53
2018-08-10T08:52:30.694Z,1.42
2018-08-10T08:56:13.900Z,2.60
2018-08-10T08:58:49.875Z,7.55
2018-08-10T09:01:24.505Z,1.77
2018-08-10T09:05:05.706Z,2.77
2018-08-10T09:07:40.544Z,5.83
2018-08-10T09:10:16.487Z,1.82
2018-08-10T09:12:51.133Z,1.47
2018-08-10T09:15:25.817Z,1.75
2018-08-10T09:18:00.475Z,1.67
2018-08-10T09:20:35.242Z,2.02
2018-08-10T09:23:10.144Z,3.50
2018-08-10T09:25:44.848Z,1.60
2018-08-10T09:28:19.426Z,2.42
2018-08-10T09:30:54.147Z,1.50
2018-08-10T09:33:28.895Z,2.27
2018-08-10T09:36:03.490Z,5.65
2018-08-10T09:38:38.272Z,5.05
2018-08-10T09:41:12.988Z,3.47
2018-08-10T09:43:47.663Z,2.85
2018-08-10T09:46:22.345Z,4.45
2018-08-10T09:48:56.990Z,3.05
2018-08-10T09:51:31.818Z,2.15
2018-08-10T09:54:06.656Z,5.17
2018-08-10T09:56:41.274Z,3.05
2018-08-10T09:59:15.991Z,1.45
2018-08-10T10:02:14.849Z,5.85
2018-08-10T10:04:49.487Z,8.40
2018-08-10T10:07:24.266Z,5.03
2018-08-10T10:09:58.733Z,2.95
2018-08-10T10:12:33.470Z,3.22
2018-08-10T10:15:08.095Z,2.05
2018-08-10T10:17:42.802Z,2.77
2018-08-10T10:20:17.613Z,2.87
2018-08-10T10:22:52.395Z,3.90
2018-08-10T10:25:27.197Z,1.50
2018-08-10T10:28:01.875Z,1.40
2018-08-10T10:30:36.492Z,2.92
2018-08-10T10:33:11.190Z,2.52
2018-08-10T10:35:45.908Z,1.70
2018-08-10T10:38:20.629Z,1.62
2018-08-10T10:40:55.261Z,2.40
2018-08-10T10:43:29.933Z,2.55
2018-08-10T10:46:04.649Z,5.35
2018-08-10T10:48:39.263Z,2.67
2018-08-10T10:51:13.879Z,2.50
2018-08-10T10:53:48.675Z,2.22
2018-08-10T10:56:23.458Z,1.67
2018-08-10T10:58:58.154Z,3.20
2018-08-10T11:01:33.040Z,15.32
2018-08-10T11:04:07.534Z,16.12
2018-08-10T11:06:42.219Z,11.73
2018-08-10T11:09:16.829Z,4.20
2018-08-10T11:11:51.581Z,2.40
2018-08-10T11:14:26.338Z,2.47
2018-08-10T11:17:01.090Z,2.12
2018-08-10T11:19:35.677Z,1.40
2018-08-10T11:22:10.167Z,5.40
2018-08-10T11:24:44.793Z,2.95
2018-08-10T11:27:19.556Z,2.00
2018-08-10T11:29:54.048Z,1.57
2018-08-10T11:32:28.740Z,2.25
2018-08-10T11:35:03.649Z,2.00
2018-08-10T11:37:38.480Z,2.55
2018-08-10T11:40:14.071Z,1.92
2018-08-10T11:42:48.773Z,1.80
2018-08-10T11:45:23.430Z,2.20
2018-08-10T11:47:58.216Z,2.30
2018-08-10T11:50:32.799Z,4.15
2018-08-10T11:53:07.447Z,2.40
2018-08-10T11:55:41.986Z,2.33
2018-08-10T11:58:16.554Z,2.27
2018-08-10T12:00:51.304Z,3.15
2018-08-10T12:03:26.094Z,21.30
2018-08-10T12:06:00.689Z,23.27
2018-08-10T12:08:35.136Z,4.22
2018-08-10T12:11:09.643Z,2.55
2018-08-10T12:13:44.118Z,2.70
2018-08-10T12:16:18.675Z,2.42
2018-08-10T12:18:53.710Z,7.85
2018-08-10T12:21:28.346Z,8.35
2018-08-10T12:24:03.070Z,2.80
2018-08-10T12:26:37.707Z,2.75
2018-08-10T12:29:12.292Z,2.83
2018-08-10T12:31:46.996Z,2.95
2018-08-10T12:34:21.823Z,2.25
2018-08-10T12:36:56.266Z,3.33
2018-08-10T12:39:30.853Z,2.10
2018-08-10T12:42:05.714Z,2.60
2018-08-10T12:44:40.300Z,3.25
2018-08-10T12:47:14.818Z,4.05
2018-08-10T12:49:49.430Z,2.98
2018-08-10T12:52:24.004Z,1.98
2018-08-10T12:54:58.643Z,1.80
2018-08-10T12:57:33.308Z,2.20
2018-08-10T13:00:10.354Z,2.55
2018-08-10T13:02:45.174Z,1.80
2018-08-10T13:05:19.772Z,4.03
2018-08-10T13:07:54.512Z,4.25
2018-08-10T13:10:29.397Z,5.50
2018-08-10T13:13:03.913Z,3.55
2018-08-10T13:15:38.588Z,11.20
2018-08-10T13:18:13.252Z,31.93
2018-08-10T13:20:47.897Z,33.48
2018-08-10T13:23:22.394Z,18.23
2018-08-10T13:25:57.028Z,7.40
2018-08-10T13:28:31.487Z,2.60
2018-08-10T13:31:06.064Z,2.40
2018-08-10T13:33:40.684Z,2.70
2018-08-10T13:36:15.493Z,2.92
2018-08-10T13:38:50.386Z,4.10
2018-08-10T13:41:25.005Z,2.77
2018-08-10T13:43:59.628Z,3.75
2018-08-10T13:46:34.171Z,2.10
2018-08-10T13:49:08.919Z,2.90
2018-08-10T13:51:43.394Z,2.70
2018-08-10T13:54:18.116Z,5.95
2018-08-10T13:56:52.836Z,2.70
2018-08-10T13:59:27.363Z,14.87
2018-08-10T14:02:01.911Z,10.82
2018-08-10T14:04:36.600Z,2.10
2018-08-10T14:07:11.685Z,2.50
2018-08-10T14:09:46.625Z,4.65
2018-08-10T14:12:21.354Z,5.33
2018-08-10T14:14:56.250Z,2.70
2018-08-10T14:17:31.194Z,3.00
2018-08-10T14:20:06.790Z,3.33
2018-08-10T14:22:41.506Z,2.58
2018-08-10T14:25:16.117Z,4.33
2018-08-10T14:27:50.766Z,2.90
2018-08-10T14:30:25.446Z,4.30
2018-08-10T14:33:00.113Z,3.00
2018-08-10T14:35:35.008Z,4.60
2018-08-10T14:38:09.639Z,4.20
2018-08-10T14:40:44.548Z,5.60
2018-08-10T14:43:19.196Z,4.70
2018-08-10T14:45:53.842Z,4.05
2018-08-10T14:48:28.650Z,5.83
2018-08-10T14:51:03.205Z,4.92
2018-08-10T14:53:37.807Z,13.80
2018-08-10T14:56:12.425Z,34.85
2018-08-10T14:58:46.992Z,14.40
2018-08-10T15:01:21.795Z,5.58
2018-08-10T15:03:56.633Z,4.53
2018-08-10T15:06:31.487Z,18.23
2018-08-10T15:09:09.262Z,33.58
2018-08-10T15:11:44.607Z,56.48
2018-08-10T15:14:19.250Z,23.57
2018-08-10T15:16:54.072Z,5.40
2018-08-10T15:19:28.756Z,4.45
2018-08-10T15:22:03.226Z,4.80
2018-08-10T15:24:37.608Z,4.03
2018-08-10T15:27:12.400Z,4.50
2018-08-10T15:29:47.045Z,4.25
2018-08-10T15:32:21.903Z,3.80
2018-08-10T15:34:56.320Z,4.55
2018-08-10T15:37:30.916Z,4.92
2018-08-10T15:40:06.891Z,4.20
2018-08-10T15:42:41.705Z,7.40
2018-08-10T15:45:17.324Z,3.25
2018-08-10T15:47:52.055Z,4.97
2018-08-10T15:50:26.685Z,4.53
2018-08-10T15:53:01.414Z,4.87
2018-08-10T15:55:35.932Z,5.25
2018-08-10T15:58:10.518Z,6.00
2018-08-10T16:00:45.177Z,3.50
2018-08-10T16:03:19.922Z,4.87
2018-08-10T16:05:54.480Z,3.50
2018-08-10T16:08:29.183Z,4.87
2018-08-10T16:11:03.739Z,25.40
2018-08-10T16:13:38.384Z,27.75
2018-08-10T16:16:13.048Z,11.70
2018-08-10T16:18:47.839Z,4.40
2018-08-10T16:21:22.585Z,3.70
2018-08-10T16:23:57.366Z,3.90
2018-08-10T16:26:32.001Z,3.25
2018-08-10T16:29:06.831Z,4.20
2018-08-10T16:31:41.553Z,3.08
2018-08-10T16:34:16.235Z,2.90
2018-08-10T16:36:50.866Z,3.37
2018-08-10T16:39:25.551Z,2.80
2018-08-10T16:42:00.343Z,2.95
2018-08-10T16:44:35.035Z,3.50
2018-08-10T16:47:09.725Z,3.22
2018-08-10T16:49:44.290Z,4.72
2018-08-10T16:52:19.055Z,3.47
2018-08-10T16:54:53.768Z,3.90
2018-08-10T16:57:28.402Z,3.05
2018-08-10T17:00:03.296Z,3.42
2018-08-10T17:02:38.239Z,3.98
2018-08-10T17:05:12.963Z,3.35
2018-08-10T17:07:47.768Z,12.70
2018-08-10T17:10:22.462Z,5.67
2018-08-10T17:12:57.055Z,26.90
2018-08-10T17:15:31.747Z,26.90
2018-08-10T17:18:06.382Z,12.23
2018-08-10T17:20:41.455Z,6.37
2018-08-10T17:23:16.141Z,4.53
2018-08-10T17:25:50.934Z,4.65
2018-08-10T17:28:25.716Z,4.35
2018-08-10T17:31:00.466Z,3.70
2018-08-10T17:33:35.218Z,4.03
2018-08-10T17:36:09.875Z,3.17
2018-08-10T17:38:44.441Z,4.75
2018-08-10T17:41:18.956Z,4.90
2018-08-10T17:43:53.566Z,7.05
2018-08-10T17:46:28.318Z,5.70
2018-08-10T17:49:03.046Z,5.47
2018-08-10T17:51:38.074Z,4.92
2018-08-10T17:54:12.816Z,4.62
2018-08-10T17:56:47.488Z,5.75
2018-08-10T17:59:22.316Z,6.35
2018-08-10T18:01:56.987Z,5.12
2018-08-10T18:04:31.705Z,6.85
2018-08-10T18:07:06.841Z,4.92
2018-08-10T18:09:41.637Z,5.28
2018-08-10T18:12:16.339Z,4.40
2018-08-10T18:14:51.133Z,5.35
2018-08-10T18:17:26.002Z,10.35
2018-08-10T18:20:00.779Z,34.45
2018-08-10T18:22:35.614Z,22.93
2018-08-10T18:25:11.622Z,34.23
2018-08-10T18:27:46.441Z,15.58
2018-08-10T18:30:23.403Z,14.73
2018-08-10T18:32:58.112Z,17.30
2018-08-10T18:35:32.816Z,6.67
2018-08-10T18:38:07.650Z,6.90
2018-08-10T18:40:42.905Z,6.62
2018-08-10T18:43:17.639Z,10.30
2018-08-10T18:45:52.294Z,6.35
2018-08-10T18:48:27.139Z,10.55
2018-08-10T18:51:01.970Z,25.88
2018-08-10T18:53:36.864Z,37.28
2018-08-10T18:56:11.575Z,53.78
2018-08-10T18:58:46.232Z,17.17
2018-08-10T19:01:21.014Z,13.32
2018-08-10T19:03:55.713Z,10.68
2018-08-10T19:06:30.523Z,8.80
2018-08-10T19:09:07.763Z,8.10
2018-08-10T19:11:42.642Z,8.38
2018-08-10T19:14:17.329Z,6.55
2018-08-10T19:16:51.746Z,5.30
2018-08-10T19:19:26.686Z,6.03
2018-08-10T19:22:01.479Z,5.67
2018-08-10T19:24:36.404Z,4.05
2018-08-10T19:27:11.358Z,4.25
2018-08-10T19:29:46.295Z,2.58
2018-08-10T19:32:21.207Z,3.80
2018-08-10T19:34:55.693Z,2.20
2018-08-10T19:37:30.368Z,1.70
2018-08-10T19:40:06.535Z,1.77
2018-08-10T19:42:41.363Z,2.95
2018-08-10T19:45:16.542Z,2.67
2018-08-10T19:47:51.147Z,8.18
2018-08-10T19:50:26.085Z,45.78
2018-08-10T19:53:00.882Z,24.02
2018-08-10T19:55:35.716Z,22.98
2018-08-10T19:58:10.576Z,9.70
2018-08-10T20:00:45.342Z,1.67
2018-08-10T20:03:19.968Z,1.22
2018-08-10T20:05:54.831Z,3.05
2018-08-10T20:08:29.630Z,1.90
2018-08-10T20:11:04.346Z,2.30
2018-08-10T20:13:39.151Z,2.35
2018-08-10T20:16:13.808Z,5.03
2018-08-10T20:18:48.546Z,5.95
2018-08-10T20:21:23.265Z,1.70
2018-08-10T20:23:58.139Z,1.25
2018-08-10T20:26:32.981Z,1.40
2018-08-10T20:29:07.694Z,2.30
2018-08-10T20:31:42.540Z,2.45
2018-08-10T20:34:17.250Z,1.57
2018-08-10T20:36:51.985Z,6.15
2018-08-10T20:39:26.863Z,1.35
2018-08-10T20:42:01.803Z,1.45
2018-08-10T20:44:36.457Z,3.65
2018-08-10T20:47:11.477Z,3.42
2018-08-10T20:49:46.446Z,5.85
2018-08-10T20:52:21.145Z,1.47
2018-08-10T20:54:56.191Z,3.22
2018-08-10T20:57:30.739Z,5.70
2018-08-10T21:00:06.884Z,14.03
2018-08-10T21:02:43.057Z,26.87
2018-08-10T21:05:17.573Z,8.88
2018-08-10T21:07:52.524Z,3.80
2018-08-10T21:10:27.299Z,4.15
2018-08-10T21:13:02.037Z,4.42
2018-08-10T21:15:36.677Z,8.53
2018-08-10T21:18:11.716Z,2.05
2018-08-10T21:20:46.507Z,2.30
2018-08-10T21:23:21.037Z,1.52
2018-08-10T21:25:55.774Z,1.72
2018-08-10T21:28:30.450Z,3.37
2018-08-10T21:31:05.069Z,4.20
2018-08-10T21:33:39.538Z,1.62
2018-08-10T21:36:14.226Z,1.60
2018-08-10T21:38:48.807Z,3.37
2018-08-10T21:41:23.566Z,4.20
2018-08-10T21:43:58.205Z,4.05
2018-08-10T21:46:33.115Z,5.20
2018-08-10T21:49:07.910Z,8.90
2018-08-10T21:51:42.836Z,4.15
2018-08-10T21:54:17.498Z,5.05
2018-08-10T21:56:52.328Z,4.05
2018-08-10T21:59:27.062Z,1.80
2018-08-10T22:02:02.173Z,14.85
2018-08-10T22:04:36.737Z,38.55
2018-08-10T22:07:11.306Z,21.93
2018-08-10T22:09:46.000Z,13.32
2018-08-10T22:12:20.844Z,2.72
2018-08-10T22:15:00.704Z,5.17
2018-08-10T22:17:40.737Z,4.80
2018-08-10T22:20:15.569Z,2.08
2018-08-10T22:22:50.085Z,3.20
2018-08-10T22:25:24.794Z,3.83
2018-08-10T22:27:59.772Z,2.33
2018-08-10T22:30:34.561Z,3.15
2018-08-10T22:33:09.238Z,5.92
2018-08-10T22:35:44.187Z,4.92
2018-08-10T22:38:18.940Z,2.12
2018-08-10T22:40:53.635Z,1.70
2018-08-10T22:43:28.289Z,3.83
2018-08-10T22:46:02.871Z,1.90
2018-08-10T22:48:37.489Z,11.80
2018-08-10T22:51:12.032Z,3.65
2018-08-10T22:53:46.667Z,4.40
2018-08-10T22:56:21.245Z,5.35
2018-08-10T22:58:56.000Z,3.20
2018-08-10T23:01:30.664Z,2.70
2018-08-10T23:04:05.388Z,10.20
2018-08-10T23:06:39.985Z,2.83
2018-08-10T23:09:14.888Z,11.78
2018-08-10T23:11:49.728Z,58.40
2018-08-10T23:14:24.522Z,11.68
2018-08-10T23:16:59.197Z,2.55
2018-08-10T23:19:34.218Z,1.80
2018-08-10T23:22:08.960Z,2.52
2018-08-10T23:24:43.717Z,2.37
2018-08-10T23:27:18.491Z,8.70
2018-08-10T23:29:53.220Z,6.80
2018-08-10T23:32:27.958Z,2.55
2018-08-10T23:35:02.602Z,3.72
2018-08-10T23:37:37.794Z,1.82
2018-08-10T23:40:14.779Z,4.22
2018-08-10T23:42:49.347Z,2.02
2018-08-10T23:45:24.060Z,6.37
2018-08-10T23:47:58.847Z,3.42
2018-08-10T23:50:33.532Z,4.90
2018-08-10T23:53:08.291Z,1.90
2018-08-10T23:55:43.078Z,3.75
2018-08-10T23:58:17.911Z,5.42
